Time;durP1;ratioP1;P1;durP2;ratioP2;P2;SDS_P1;SDS_P2;PMS_P1;PMS_P2;Temp;Humidity;BMP_temperature;BMP_pressure;BME280_temperature;BME280_humidity;BME280_pressure;Samples;Min_cycle;Max_cycle;Signal;HPM_P1;HPM_P2
2022/01/03 00:00:09;;;;;;;62.25;37.60;;;;;;;4.68;80.37;95637.03;5009076;28;20045;-65
2022/01/03 00:02:35;;;;;;;52.33;35.92;;;;;;;4.74;80.20;95634.28;5007975;28;20405;-63
2022/01/03 00:05:00;;;;;;;49.83;33.00;;;;;;;4.64;80.77;95630.31;5008560;28;20038;-62
2022/01/03 00:07:27;;;;;;;48.83;33.95;;;;;;;4.65;80.83;95627.72;5008827;28;20143;-62
2022/01/03 00:09:53;;;;;;;50.13;32.88;;;;;;;4.70;80.62;95633.53;5006108;28;20373;-62
2022/01/03 00:12:21;;;;;;;53.90;32.75;;;;;;;4.68;81.13;95626.81;5007949;28;20033;-64
2022/01/03 00:14:49;;;;;;;49.28;31.85;;;;;;;4.67;80.78;95620.00;5008221;28;20378;-62
2022/01/03 00:17:14;;;;;;;50.40;33.50;;;;;;;4.73;80.76;95607.06;5007927;28;20030;-64
2022/01/03 00:19:40;;;;;;;50.78;34.00;;;;;;;4.79;80.50;95612.81;5008217;28;20539;-65
2022/01/03 00:22:07;;;;;;;52.92;32.47;;;;;;;4.52;81.08;95565.94;5007604;28;20405;-64
2022/01/03 00:24:36;;;;;;;48.35;32.63;;;;;;;4.75;80.42;95598.44;5008305;28;20030;-62
2022/01/03 00:27:13;;;;;;;54.60;36.03;;;;;;;4.70;80.80;95600.31;5007944;28;20088;-65
2022/01/03 00:29:44;;;;;;;50.97;35.33;;;;;;;4.67;81.35;95594.47;5006510;28;20030;-63
2022/01/03 00:32:11;;;;;;;50.03;34.28;;;;;;;4.67;80.91;95584.25;5007644;28;20458;-63
2022/01/03 00:34:38;;;;;;;45.67;32.03;;;;;;;4.63;81.27;95577.56;5008003;28;20501;-65
2022/01/03 00:37:06;;;;;;;57.22;34.20;;;;;;;4.51;81.04;95560.88;5008573;28;20030;-62
2022/01/03 00:39:32;;;;;;;49.40;32.47;;;;;;;4.54;80.33;95574.41;5007528;28;20057;-63
2022/01/03 00:41:58;;;;;;;46.67;32.08;;;;;;;4.64;80.24;95589.44;5008312;28;20030;-66
2022/01/03 00:44:24;;;;;;;54.42;34.33;;;;;;;4.58;80.39;95598.97;5008243;28;20033;-62
2022/01/03 00:46:52;;;;;;;45.85;33.15;;;;;;;4.67;80.49;95612.34;5007864;28;20403;-63
2022/01/03 00:49:18;;;;;;;54.58;34.67;;;;;;;4.56;80.26;95598.19;5008225;28;20101;-64
2022/01/03 00:51:44;;;;;;;57.65;39.60;;;;;;;4.55;80.71;95616.09;5007461;28;20129;-62
2022/01/03 00:54:09;;;;;;;64.57;41.67;;;;;;;4.52;80.76;95595.75;5007911;28;20127;-63
2022/01/03 00:56:37;;;;;;;64.10;40.38;;;;;;;4.60;80.18;95569.09;5010153;28;20026;-65
2022/01/03 00:59:11;;;;;;;53.90;34.92;;;;;;;4.67;80.79;95592.72;5011615;28;20026;-62
2022/01/03 01:01:39;;;;;;;53.70;35.47;;;;;;;4.63;80.54;95595.44;5011282;28;20109;-64
2022/01/03 01:04:08;;;;;;;45.78;32.25;;;;;;;4.73;80.27;95578.94;5011454;28;20070;-62
2022/01/03 01:06:35;;;;;;;45.33;32.78;;;;;;;4.66;80.63;95567.25;5011609;28;20409;-65
2022/01/03 01:09:04;;;;;;;44.92;29.55;;;;;;;4.65;80.44;95571.50;5011673;28;20030;-66
2022/01/03 01:11:31;;;;;;;40.30;27.58;;;;;;;4.55;79.75;95547.97;5011372;28;20062;-63
2022/01/03 01:13:57;;;;;;;43.47;26.52;;;;;;;4.59;80.24;95561.47;5011492;28;20113;-66
2022/01/03 01:16:23;;;;;;;43.75;28.17;;;;;;;4.58;80.08;95547.88;5010725;28;20141;-63
2022/01/03 01:18:50;;;;;;;44.05;26.17;;;;;;;4.48;80.09;95543.94;5011892;28;20022;-66
2022/01/03 01:21:17;;;;;;;42.33;28.48;;;;;;;4.43;81.29;95558.56;5011115;28;20657;-64
2022/01/03 01:23:43;;;;;;;38.47;26.85;;;;;;;4.30;81.46;95562.38;5011657;28;20046;-64
2022/01/03 01:28:54;;;;;;;49.72;29.13;;;;;;;4.05;82.21;95524.81;5011878;28;20504;-64
2022/01/03 01:31:21;;;;;;;41.70;25.38;;;;;;;4.46;81.37;95558.50;5011167;28;20026;-65
2022/01/03 01:33:52;;;;;;;40.45;24.88;;;;;;;4.54;81.13;95556.53;5011488;28;20045;-64
2022/01/03 01:36:22;;;;;;;36.90;25.23;;;;;;;4.52;80.50;95550.63;5010995;28;20021;-66
2022/01/03 01:38:50;;;;;;;35.67;23.73;;;;;;;4.38;81.39;95551.06;5011022;28;20029;-66
2022/01/03 01:41:18;;;;;;;36.72;23.77;;;;;;;4.32;81.08;95546.13;5010695;28;20053;-62
2022/01/03 01:43:46;;;;;;;38.28;24.25;;;;;;;4.25;81.25;95539.53;5011159;28;20109;-68
2022/01/03 01:46:19;;;;;;;41.17;26.45;;;;;;;4.28;80.79;95557.31;5010749;28;20491;-65
2022/01/03 01:48:47;;;;;;;95.55;58.20;;;;;;;4.17;80.24;95551.69;5011107;28;20030;-66
2022/01/03 01:51:15;;;;;;;105.97;66.78;;;;;;;3.95;80.31;95551.47;5010465;28;20488;-66
2022/01/03 01:53:43;;;;;;;102.40;66.30;;;;;;;3.78;80.55;95539.19;5010680;28;20017;-66
2022/01/03 01:56:19;;;;;;;104.07;65.68;;;;;;;3.63;80.59;95551.47;5010683;28;20034;-62
2022/01/03 01:59:10;;;;;;;109.10;70.93;;;;;;;3.48;81.37;95547.63;5010300;28;20049;-65
2022/01/03 02:01:57;;;;;;;117.82;72.18;;;;;;;3.48;81.15;95541.72;4988238;28;20137;-65
2022/01/03 02:04:40;;;;;;;104.25;68.30;;;;;;;3.48;81.37;95544.25;4988249;28;20040;-64
2022/01/03 02:07:28;;;;;;;114.30;67.70;;;;;;;3.34;81.21;95521.66;4986994;28;20045;-66
2022/01/03 02:10:07;;;;;;;92.82;60.65;;;;;;;3.52;81.05;95525.44;4910942;29;20444;-64
2022/01/03 02:12:38;;;;;;;96.63;58.70;;;;;;;3.62;81.21;95521.78;4911476;29;20044;-66
2022/01/03 02:15:08;;;;;;;83.05;51.08;;;;;;;3.75;80.98;95508.66;4910239;29;20595;-61
2022/01/03 02:17:33;;;;;;;72.60;49.33;;;;;;;3.82;80.70;95495.69;4911400;29;20028;-65
2022/01/03 02:20:07;;;;;;;80.18;50.88;;;;;;;3.79;79.85;95477.91;4911413;29;20039;-62
2022/01/03 02:22:33;;;;;;;77.47;50.38;;;;;;;3.78;79.65;95486.44;4911163;29;20036;-64
2022/01/03 02:24:58;;;;;;;86.30;51.22;;;;;;;3.79;80.22;95492.41;4911307;29;20561;-62
2022/01/03 02:27:24;;;;;;;77.95;48.90;;;;;;;3.70;80.73;95490.94;4910586;29;20528;-62
2022/01/03 02:29:49;;;;;;;80.60;51.00;;;;;;;3.66;81.01;95484.25;4911115;29;20043;-65
2022/01/03 02:32:15;;;;;;;78.38;48.97;;;;;;;3.68;81.46;95485.03;4911135;29;20056;-62
2022/01/03 02:34:43;;;;;;;84.57;51.35;;;;;;;3.66;81.32;95494.47;4910799;29;20555;-62
2022/01/03 02:37:09;;;;;;;96.25;56.53;;;;;;;3.64;80.88;95489.41;4911505;29;20508;-61
2022/01/03 02:39:34;;;;;;;94.65;60.42;;;;;;;3.32;80.70;95452.03;4927197;29;20043;-67
2022/01/03 02:42:00;;;;;;;95.95;61.13;;;;;;;3.52;81.08;95496.56;4929909;29;20036;-64
2022/01/03 02:44:26;;;;;;;95.07;59.78;;;;;;;3.38;81.08;95487.56;4929794;29;20554;-63
2022/01/03 02:46:51;;;;;;;93.95;58.92;;;;;;;3.46;81.46;95488.19;4967218;28;20038;-62
2022/01/03 02:49:17;;;;;;;92.10;54.60;;;;;;;3.34;81.59;95462.19;5009818;28;20088;-64
2022/01/03 02:51:44;;;;;;;85.57;53.40;;;;;;;3.49;81.33;95493.22;5008961;28;20079;-64
2022/01/03 02:54:11;;;;;;;84.57;51.20;;;;;;;3.08;81.46;95400.03;5009716;28;20025;-64
2022/01/03 02:56:36;;;;;;;83.45;50.13;;;;;;;3.91;80.33;95486.09;5009575;28;20032;-64
2022/01/03 02:59:10;;;;;;;84.85;50.17;;;;;;;3.99;79.85;95491.81;5009506;28;20022;-63
2022/01/03 03:01:36;;;;;;;75.28;49.53;;;;;;;3.80;80.08;95466.81;5009753;28;20044;-64
2022/01/03 03:04:01;;;;;;;71.00;48.00;;;;;;;3.98;80.60;95485.03;5008990;28;20112;-62
2022/01/03 03:06:29;;;;;;;71.13;46.28;;;;;;;4.07;79.95;95473.69;5009513;28;20037;-63
2022/01/03 03:08:54;;;;;;;74.50;49.45;;;;;;;4.14;79.70;95452.22;5009312;28;20119;-64
2022/01/03 03:11:20;;;;;;;68.80;43.40;;;;;;;4.21;79.36;95464.78;5008192;28;20069;-64
2022/01/03 03:13:45;;;;;;;65.22;42.50;;;;;;;3.60;79.48;95367.94;5009165;28;20111;-61
2022/01/03 03:16:10;;;;;;;68.47;42.85;;;;;;;4.18;79.93;95466.56;5008535;28;20026;-65
2022/01/03 03:18:36;;;;;;;59.72;35.50;;;;;;;4.41;78.86;95473.50;5009117;28;20088;-61
2022/01/03 03:21:01;;;;;;;56.65;37.70;;;;;;;4.12;78.72;95426.75;5009503;28;20034;-61
2022/01/03 03:23:27;;;;;;;56.90;37.08;;;;;;;4.19;78.83;95473.34;5009003;28;20036;-66
2022/01/03 03:25:52;;;;;;;49.15;31.08;;;;;;;4.00;79.86;95447.53;5009353;28;20547;-61
2022/01/03 03:28:18;;;;;;;52.00;31.92;;;;;;;4.12;79.29;95472.69;5008472;28;20026;-61
2022/01/03 03:30:46;;;;;;;45.67;30.27;;;;;;;4.07;80.20;95483.91;5009440;28;20045;-66
2022/01/03 03:33:18;;;;;;;45.78;29.58;;;;;;;4.04;80.54;95467.81;5008919;28;20503;-63
2022/01/03 03:35:45;;;;;;;50.50;30.55;;;;;;;3.78;80.44;95444.81;5008910;28;20041;-65
2022/01/03 03:38:11;;;;;;;42.25;28.05;;;;;;;3.82;80.41;95420.84;5008945;28;20041;-66
2022/01/03 03:40:37;;;;;;;41.80;28.95;;;;;;;4.06;80.62;95455.00;5008237;28;20018;-66
2022/01/03 03:43:03;;;;;;;42.97;27.50;;;;;;;4.10;80.27;95458.31;5009058;28;20036;-61
2022/01/03 03:45:29;;;;;;;37.00;22.75;;;;;;;3.96;80.22;95428.13;5008575;28;20437;-65
2022/01/03 03:47:57;;;;;;;43.95;25.70;;;;;;;4.08;80.45;95460.91;5009102;28;20021;-63
2022/01/03 03:50:22;;;;;;;40.90;27.40;;;;;;;3.84;81.29;95447.19;5008536;28;20028;-60
2022/01/03 03:52:48;;;;;;;40.65;26.50;;;;;;;3.91;81.67;95463.97;5008097;28;20108;-68
2022/01/03 03:55:13;;;;;;;36.28;25.08;;;;;;;3.96;81.30;95459.56;5008951;28;20064;-65
2022/01/03 03:57:39;;;;;;;40.00;25.33;;;;;;;3.95;81.82;95457.03;5008277;28;20057;-63
2022/01/03 04:00:11;;;;;;;50.60;32.28;;;;;;;4.03;81.44;95465.31;5008832;28;20061;-67
2022/01/03 04:02:36;;;;;;;70.93;43.33;;;;;;;3.91;80.18;95458.03;5007947;28;20053;-62
2022/01/03 04:05:02;;;;;;;79.82;47.38;;;;;;;3.72;79.15;95447.53;5008565;28;20349;-64
2022/01/03 04:07:28;;;;;;;78.72;48.17;;;;;;;3.71;78.99;95459.44;5008465;28;20108;-66
2022/01/03 04:09:53;;;;;;;77.47;46.00;;;;;;;3.59;78.85;95453.00;5008757;28;20512;-63
2022/01/03 04:12:19;;;;;;;78.97;46.25;;;;;;;3.55;79.11;95455.69;5039830;28;20050;-61
2022/01/03 04:14:45;;;;;;;73.18;43.88;;;;;;;3.30;79.15;95435.97;5008090;28;20044;-66
2022/01/03 04:17:11;;;;;;;68.65;43.65;;;;;;;2.98;79.76;95398.63;5008132;28;20038;-62
2022/01/03 04:19:37;;;;;;;66.78;43.83;;;;;;;3.35;79.99;95459.63;5008675;28;20030;-62
2022/01/03 04:22:03;;;;;;;78.07;46.60;;;;;;;3.48;79.90;95476.25;5008144;28;20481;-64
2022/01/03 04:24:28;;;;;;;72.70;44.53;;;;;;;3.63;79.95;95469.88;5008138;28;20073;-64
2022/01/03 04:26:54;;;;;;;66.53;40.38;;;;;;;3.77;79.26;95471.19;5008371;28;20485;-64
2022/01/03 04:29:20;;;;;;;52.38;36.40;;;;;;;3.88;79.12;95453.84;5008227;28;20104;-65
2022/01/03 04:31:45;;;;;;;55.55;36.08;;;;;;;3.92;79.15;95447.78;5007635;28;20030;-63
2022/01/03 04:34:11;;;;;;;53.70;33.45;;;;;;;4.10;78.85;95456.59;5007903;28;20022;-65
2022/01/03 04:36:36;;;;;;;53.08;33.50;;;;;;;3.92;78.61;95413.75;5008423;28;20026;-68
2022/01/03 04:39:04;;;;;;;49.08;31.27;;;;;;;4.06;78.53;95452.47;5007676;28;20018;-61
2022/01/03 04:41:29;;;;;;;51.47;31.05;;;;;;;3.39;79.45;95348.19;5007852;28;20105;-61
2022/01/03 04:43:55;;;;;;;44.65;30.58;;;;;;;3.61;79.82;95396.84;5008363;28;20625;-66
2022/01/03 04:46:20;;;;;;;49.50;31.83;;;;;;;3.98;79.70;95459.50;5007823;28;20022;-61
2022/01/03 04:48:46;;;;;;;50.00;30.50;;;;;;;3.71;79.74;95426.28;5007937;28;20030;-61
2022/01/03 04:51:12;;;;;;;50.17;31.13;;;;;;;3.90;79.79;95482.69;5007635;28;20426;-65
2022/01/03 04:53:40;;;;;;;48.00;30.98;;;;;;;3.78;80.53;95478.78;5007957;28;20041;-62
2022/01/03 04:56:07;;;;;;;53.50;31.40;;;;;;;3.78;80.88;95483.91;5007670;28;20037;-64
2022/01/03 04:58:32;;;;;;;46.50;31.42;;;;;;;3.76;80.83;95485.66;5006411;28;20125;-66
2022/01/03 05:00:58;;;;;;;49.72;32.45;;;;;;;3.82;80.66;95480.38;5007618;28;20121;-65
2022/01/03 05:03:23;;;;;;;48.67;31.45;;;;;;;3.79;80.70;95479.66;5008138;28;20120;-62
2022/01/03 05:05:49;;;;;;;49.67;33.53;;;;;;;3.77;81.10;95477.13;5008367;28;20050;-65
2022/01/03 05:08:14;;;;;;;53.15;33.20;;;;;;;3.83;80.88;95486.31;5008125;28;20087;-62
2022/01/03 05:10:40;;;;;;;50.95;32.75;;;;;;;3.93;80.41;95471.56;5008106;28;20487;-65
2022/01/03 05:13:05;;;;;;;47.17;30.90;;;;;;;3.98;80.66;95483.31;5008048;28;20164;-67
2022/01/03 05:15:31;;;;;;;43.97;28.98;;;;;;;4.06;79.64;95472.88;5007238;28;20028;-61
2022/01/03 05:17:56;;;;;;;38.90;27.38;;;;;;;4.10;79.23;95478.72;5007830;28;20014;-62
2022/01/03 05:20:22;;;;;;;40.50;27.13;;;;;;;3.94;79.57;95452.84;5007976;28;20061;-62
2022/01/03 05:22:47;;;;;;;42.15;27.20;;;;;;;4.03;79.02;95466.16;5008026;28;20123;-61
2022/01/03 05:25:13;;;;;;;40.72;24.95;;;;;;;3.99;79.55;95467.13;5007947;28;20113;-61
2022/01/03 05:27:40;;;;;;;42.15;28.33;;;;;;;3.17;79.37;95348.81;5007361;28;20029;-61
2022/01/03 05:30:06;;;;;;;39.53;27.08;;;;;;;3.72;80.36;95447.53;4992250;28;20109;-62
2022/01/03 05:32:32;;;;;;;38.20;27.58;;;;;;;3.84;80.61;95470.13;4988021;28;20569;-63
2022/01/03 05:34:57;;;;;;;38.25;26.13;;;;;;;3.88;80.53;95468.34;4988491;28;20038;-63
2022/01/03 05:37:23;;;;;;;45.38;26.85;;;;;;;3.90;80.01;95451.25;4988215;28;20566;-61
2022/01/03 05:39:48;;;;;;;42.92;26.27;;;;;;;3.78;79.83;95424.41;4987987;28;20054;-62
2022/01/03 05:42:14;;;;;;;36.45;25.77;;;;;;;3.61;80.00;95409.59;4990272;28;20041;-63
2022/01/03 05:44:40;;;;;;;39.00;24.38;;;;;;;3.78;80.23;95466.03;4991796;28;20101;-64
2022/01/03 05:47:06;;;;;;;40.10;25.90;;;;;;;3.64;80.32;95455.38;4991540;28;20027;-63
2022/01/03 05:49:31;;;;;;;39.05;25.17;;;;;;;3.70;80.89;95474.81;5022809;28;20105;-62
2022/01/03 05:51:57;;;;;;;39.75;25.77;;;;;;;3.62;80.99;95454.59;4990984;28;20027;-62
2022/01/03 05:54:22;;;;;;;40.72;26.08;;;;;;;3.52;80.95;95438.72;5005092;28;20025;-62
2022/01/03 05:56:48;;;;;;;35.92;25.95;;;;;;;3.79;80.20;95460.06;5010676;28;20088;-62
2022/01/03 05:59:13;;;;;;;37.90;25.27;;;;;;;3.80;80.05;95471.09;5010351;28;20050;-63
2022/01/03 06:01:40;;;;;;;34.45;23.42;;;;;;;3.79;79.73;95457.50;5010434;28;20025;-63
2022/01/03 06:04:21;;;;;;;38.28;24.45;;;;;;;3.89;79.76;95467.44;5011385;28;20084;-60
2022/01/03 06:06:54;;;;;;;35.50;22.88;;;;;;;3.78;79.57;95466.03;5013943;28;20029;-63
2022/01/03 06:09:20;;;;;;;36.70;22.60;;;;;;;3.81;79.70;95458.28;5012574;28;20041;-60
2022/01/03 06:11:46;;;;;;;40.17;24.30;;;;;;;3.63;80.08;95434.16;5010057;28;20030;-61
2022/01/03 06:14:15;;;;;;;36.63;25.02;;;;;;;3.34;80.33;95417.16;5010264;28;20018;-62
2022/01/03 06:16:40;;;;;;;35.85;22.80;;;;;;;3.67;81.10;95478.25;5010019;28;20107;-60
2022/01/03 06:19:06;;;;;;;35.95;23.70;;;;;;;3.65;81.02;95483.41;5010828;28;20786;-61
2022/01/03 06:21:31;;;;;;;54.05;33.45;;;;;;;3.56;79.92;95490.47;5010606;28;20034;-61
2022/01/03 06:23:57;;;;;;;54.50;34.65;;;;;;;3.40;79.05;95475.63;5010692;28;20044;-61
2022/01/03 06:26:22;;;;;;;62.80;38.35;;;;;;;3.34;78.52;95483.41;5010413;28;20034;-61
2022/01/03 06:28:47;;;;;;;65.03;38.83;;;;;;;3.14;78.76;95483.97;5010118;28;20037;-61
2022/01/03 06:31:13;;;;;;;60.55;40.55;;;;;;;2.90;79.03;95455.72;5010254;28;20029;-62
2022/01/03 06:33:40;;;;;;;54.58;38.85;;;;;;;3.17;79.36;95499.19;5010281;28;20034;-62
2022/01/03 06:36:06;;;;;;;68.05;39.72;;;;;;;3.14;79.26;95499.25;5010305;28;20069;-61
2022/01/03 06:38:31;;;;;;;60.35;38.65;;;;;;;3.21;79.52;95493.09;5010373;28;20094;-61
2022/01/03 06:40:57;;;;;;;57.65;37.00;;;;;;;3.47;78.75;95487.31;5009817;28;20475;-64
2022/01/03 06:43:22;;;;;;;57.38;36.92;;;;;;;3.52;77.88;95476.97;5009852;28;20053;-62
2022/01/03 06:45:47;;;;;;;52.90;33.65;;;;;;;3.54;78.29;95477.75;5008831;28;20042;-64
2022/01/03 06:48:13;;;;;;;53.10;33.72;;;;;;;3.67;77.91;95486.78;5010139;28;20091;-63
2022/01/03 06:50:38;;;;;;;48.50;31.27;;;;;;;3.75;77.81;95480.59;5009749;28;20037;-62
2022/01/03 06:53:04;;;;;;;44.50;30.08;;;;;;;3.86;76.84;95466.66;5004575;28;20437;-60
2022/01/03 06:55:29;;;;;;;47.33;30.63;;;;;;;3.82;76.69;95437.03;5006915;28;20671;-61
2022/01/03 06:57:55;;;;;;;45.80;30.40;;;;;;;4.15;76.25;95480.25;5006078;28;20501;-67
2022/01/03 07:00:20;;;;;;;44.50;31.58;;;;;;;3.99;76.66;95487.53;5006171;28;20581;-62
2022/01/03 07:02:46;;;;;;;48.50;30.30;;;;;;;4.04;76.90;95495.88;5005280;28;20046;-64
2022/01/03 07:05:12;;;;;;;49.00;31.75;;;;;;;4.11;76.77;95475.28;5006178;28;20030;-60
2022/01/03 07:07:39;;;;;;;42.85;29.15;;;;;;;4.20;76.40;95482.69;5005944;28;20041;-61
2022/01/03 07:10:06;;;;;;;40.97;27.15;;;;;;;4.24;76.94;95474.84;5006198;28;20026;-61
2022/01/03 07:12:33;;;;;;;36.55;26.58;;;;;;;4.40;76.60;95477.78;5006343;28;20046;-61
2022/01/03 07:20:10;;;;;;;35.17;23.67;;;;;;;4.79;74.98;95464.59;5005977;28;20192;-62
2022/01/03 07:22:40;;;;;;;36.92;24.55;;;;;;;4.85;75.04;95466.13;5006274;28;20041;-62
2022/01/03 07:25:07;;;;;;;33.35;23.50;;;;;;;4.52;75.30;95414.44;5005538;28;20053;-61
2022/01/03 07:27:32;;;;;;;35.38;19.15;;;;;;;4.53;76.17;95424.59;5005187;28;20282;-60
2022/01/03 07:29:58;;;;;;;32.75;24.38;;;;;;;4.78;76.80;95454.44;5005829;28;20037;-62
2022/01/03 07:32:23;;;;;;;31.40;21.90;;;;;;;4.85;75.98;95438.00;5006167;28;20091;-63
2022/01/03 07:34:49;;;;;;;34.78;21.67;;;;;;;4.95;76.26;95449.59;5005945;28;20683;-61
2022/01/03 07:37:14;;;;;;;33.15;22.35;;;;;;;4.49;75.66;95353.22;5002402;28;20070;-61
2022/01/03 07:39:40;;;;;;;31.33;24.00;;;;;;;5.12;75.72;95445.63;5006802;28;20029;-62
2022/01/03 07:42:05;;;;;;;31.25;19.83;;;;;;;5.30;75.24;95455.22;5007961;28;20041;-62
2022/01/03 07:44:31;;;;;;;30.13;20.00;;;;;;;5.29;75.16;95462.94;5007804;28;20022;-62
2022/01/03 07:46:56;;;;;;;26.65;18.48;;;;;;;5.40;75.09;95460.84;5008969;28;20037;-62
2022/01/03 07:49:22;;;;;;;27.42;19.10;;;;;;;5.18;75.21;95442.84;4997884;28;20082;-63
2022/01/03 07:51:48;;;;;;;50.67;30.85;;;;;;;5.24;74.54;95468.22;4989334;28;20516;-63
2022/01/03 07:54:14;;;;;;;53.53;35.08;;;;;;;5.21;74.21;95431.69;5006226;28;20117;-62
2022/01/03 07:56:39;;;;;;;55.20;35.10;;;;;;;5.20;73.52;95446.22;5008608;28;20057;-62
2022/01/03 07:59:05;;;;;;;51.53;33.67;;;;;;;5.29;73.95;95452.72;5008801;28;20033;-62
2022/01/03 08:01:32;;;;;;;44.65;29.25;;;;;;;5.43;74.00;95447.94;5008799;28;20042;-62
2022/01/03 08:03:57;;;;;;;41.45;27.50;;;;;;;5.57;74.09;95451.72;5008179;28;20042;-64
2022/01/03 08:06:23;;;;;;;28.77;20.88;;;;;;;5.86;73.00;95440.41;5007623;28;20032;-62
2022/01/03 08:08:48;;;;;;;28.60;19.20;;;;;;;6.05;72.92;95441.41;5008571;28;20042;-62
2022/01/03 08:11:14;;;;;;;33.28;21.77;;;;;;;6.14;71.92;95457.31;5008791;28;20033;-62
2022/01/03 08:13:39;;;;;;;27.13;18.20;;;;;;;6.12;72.36;95456.56;5008519;28;20022;-63
2022/01/03 08:16:05;;;;;;;27.88;18.75;;;;;;;6.11;72.21;95434.38;5008075;28;20041;-61
2022/01/03 08:18:32;;;;;;;26.17;17.50;;;;;;;6.18;72.70;95456.28;5008601;28;20030;-63
2022/01/03 08:20:58;;;;;;;26.23;18.92;;;;;;;6.16;72.73;95458.09;5007664;28;20030;-63
2022/01/03 08:23:23;;;;;;;25.23;17.05;;;;;;;6.44;72.45;95468.06;5008953;28;20055;-62
2022/01/03 08:25:48;;;;;;;29.60;17.67;;;;;;;9.41;64.48;95428.09;5008899;28;20030;-62
2022/01/03 08:28:14;;;;;;;24.60;16.48;;;;;;;12.97;51.95;95422.81;5008040;28;20030;-63
2022/01/03 08:30:40;;;;;;;22.40;15.85;;;;;;;15.11;44.55;95364.66;5008669;28;20117;-61
2022/01/03 08:33:06;;;;;;;22.65;16.42;;;;;;;16.83;40.36;95408.38;5008253;28;20042;-63
2022/01/03 08:35:32;;;;;;;21.80;17.25;;;;;;;18.11;36.80;95397.69;5008538;28;20100;-62
2022/01/03 08:37:58;;;;;;;23.80;15.98;;;;;;;19.46;34.28;95400.47;5008699;28;20037;-63
2022/01/03 08:40:24;;;;;;;22.70;17.55;;;;;;;20.78;31.64;95401.22;5008030;28;20471;-63
2022/01/03 08:42:51;;;;;;;34.45;26.10;;;;;;;21.91;30.03;95399.53;5008452;28;20030;-63
2022/01/03 08:45:17;;;;;;;33.22;24.90;;;;;;;22.54;28.76;95392.22;5008570;28;20056;-64
2022/01/03 08:47:43;;;;;;;22.73;19.60;;;;;;;21.68;29.26;95380.91;5008119;28;20112;-63
2022/01/03 08:50:09;;;;;;;28.85;20.65;;;;;;;19.69;31.93;95366.09;5008279;28;20112;-62
2022/01/03 08:52:35;;;;;;;26.33;20.85;;;;;;;18.60;33.58;95374.28;5007759;28;20030;-64
2022/01/03 08:55:00;;;;;;;21.70;18.25;;;;;;;18.45;34.22;95370.44;5008000;28;20053;-64
2022/01/03 08:57:26;;;;;;;23.23;18.60;;;;;;;18.10;34.26;95337.81;5008041;28;20046;-63
2022/01/03 08:59:52;;;;;;;21.67;17.20;;;;;;;19.56;32.39;95368.22;5008159;28;20113;-63
2022/01/03 09:02:18;;;;;;;19.73;15.48;;;;;;;18.80;33.43;95358.59;5008088;28;20121;-62
2022/01/03 09:04:45;;;;;;;23.13;16.75;;;;;;;18.82;33.61;95360.09;5007475;28;20022;-61
2022/01/03 09:07:12;;;;;;;22.30;15.95;;;;;;;20.00;31.35;95348.38;5008136;28;20080;-61
2022/01/03 09:09:37;;;;;;;22.08;17.55;;;;;;;21.79;29.27;95354.38;5007706;28;20495;-63
2022/01/03 09:12:06;;;;;;;29.20;24.15;;;;;;;21.50;28.84;95349.47;5007968;28;20037;-64
2022/01/03 09:14:32;;;;;;;32.65;22.25;;;;;;;22.67;27.75;95353.13;5007825;28;20095;-62
2022/01/03 09:16:58;;;;;;;31.63;23.85;;;;;;;21.39;28.37;95361.03;5008544;28;20103;-63
2022/01/03 09:19:23;;;;;;;34.60;26.45;;;;;;;19.58;31.08;95361.91;5011568;28;20029;-63
2022/01/03 09:21:49;;;;;;;32.70;28.08;;;;;;;19.94;30.96;95338.47;5011356;28;20030;-61
2022/01/03 09:24:42;;;;;;;32.92;27.52;;;;;;;23.97;25.79;95333.88;5011423;28;20113;-63
2022/01/03 09:29:54;;;;;;;28.92;24.35;;;;;;;27.62;20.49;95335.44;5011613;28;20111;-64
2022/01/03 09:32:19;;;;;;;29.52;26.25;;;;;;;26.21;22.10;95306.97;5011270;28;20040;-63
2022/01/03 09:34:45;;;;;;;41.00;34.35;;;;;;;25.65;22.50;95311.97;5011584;28;20104;-62
2022/01/03 09:37:12;;;;;;;54.10;43.83;;;;;;;22.82;25.48;95313.06;5011174;28;20481;-63
2022/01/03 09:39:38;;;;;;;52.47;44.85;;;;;;;21.57;27.42;95308.50;5010378;28;20056;-64
2022/01/03 09:42:07;;;;;;;48.92;39.10;;;;;;;21.23;28.08;95314.53;5011274;28;20049;-64
2022/01/03 09:44:34;;;;;;;42.08;37.20;;;;;;;20.54;29.21;95316.16;5009387;28;20040;-62
2022/01/03 09:47:05;;;;;;;53.92;44.70;;;;;;;18.37;32.46;95311.88;5010991;28;20350;-63
2022/01/03 09:49:34;;;;;;;52.30;42.05;;;;;;;17.18;34.87;95310.88;5010744;28;20022;-65
2022/01/03 09:52:02;;;;;;;47.03;36.80;;;;;;;18.37;33.25;95309.25;5010595;28;20038;-63
2022/01/03 09:54:28;;;;;;;40.47;34.00;;;;;;;19.53;31.72;95285.66;5010767;28;20443;-63
2022/01/03 09:56:56;;;;;;;46.83;38.10;;;;;;;19.95;30.11;95290.38;5010405;28;20098;-64
2022/01/03 09:59:22;;;;;;;46.45;38.38;;;;;;;19.40;31.12;95287.78;5010390;28;20519;-62
2022/01/03 10:01:48;;;;;;;48.70;37.63;;;;;;;18.62;32.44;95288.78;5010591;28;20121;-63
2022/01/03 10:04:14;;;;;;;52.17;39.00;;;;;;;17.85;33.66;95279.94;5010072;28;20022;-63
2022/01/03 10:06:40;;;;;;;53.08;39.30;;;;;;;17.18;34.71;95253.53;5010182;28;20026;-63
2022/01/03 10:09:06;;;;;;;52.42;39.95;;;;;;;17.92;34.18;95270.66;5010237;28;20480;-64
2022/01/03 10:11:32;;;;;;;49.30;39.15;;;;;;;18.31;33.79;95275.06;5010147;28;20026;-63
2022/01/03 10:13:59;;;;;;;51.97;37.45;;;;;;;18.19;33.82;95266.56;5008484;28;20064;-62
2022/01/03 10:16:25;;;;;;;48.30;38.08;;;;;;;17.95;34.68;95259.94;5010252;28;20030;-63
2022/01/03 10:18:51;;;;;;;45.17;36.92;;;;;;;18.06;34.54;95247.72;5010680;28;20724;-62
2022/01/03 10:21:38;;;;;;;49.38;38.08;;;;;;;17.66;35.12;95246.84;5010247;28;20041;-63
2022/01/03 10:24:05;;;;;;;50.22;37.67;;;;;;;17.85;34.77;95247.81;5010358;28;20033;-63
2022/01/03 10:26:30;;;;;;;47.60;37.88;;;;;;;18.88;33.41;95244.63;5009767;28;20113;-64
2022/01/03 10:29:16;;;;;;;49.58;36.97;;;;;;;20.45;31.05;95243.72;5008808;28;20118;-64
2022/01/03 10:31:43;;;;;;;45.15;37.42;;;;;;;21.64;28.78;95224.72;5008407;28;20033;-64
2022/01/03 10:34:12;;;;;;;47.63;36.10;;;;;;;22.86;27.28;95220.53;5010114;28;20018;-64
2022/01/03 10:36:42;;;;;;;48.40;35.30;;;;;;;23.29;26.57;95207.13;5009734;28;20037;-64
2022/01/03 10:39:19;;;;;;;40.35;35.10;;;;;;;22.74;26.92;95206.09;5009276;28;20034;-63
2022/01/03 10:41:48;;;;;;;41.22;34.50;;;;;;;20.85;29.12;95203.06;5010155;28;20029;-63
2022/01/03 10:44:33;;;;;;;41.70;32.60;;;;;;;20.42;30.08;95209.97;5009959;28;20026;-64
2022/01/03 10:46:59;;;;;;;42.10;33.72;;;;;;;19.92;31.01;95203.50;5009229;28;20053;-63
2022/01/03 10:49:26;;;;;;;48.60;36.50;;;;;;;20.16;30.95;95195.84;5009530;28;20029;-63
2022/01/03 10:52:09;;;;;;;46.42;36.25;;;;;;;20.71;30.34;95191.34;5008710;28;20095;-63
2022/01/03 10:54:38;;;;;;;40.72;32.30;;;;;;;20.88;29.66;95182.63;5008171;28;20120;-63
2022/01/03 10:57:03;;;;;;;43.67;35.95;;;;;;;21.56;29.12;95173.06;5009477;28;20049;-61
2022/01/03 10:59:31;;;;;;;41.08;34.90;;;;;;;22.31;28.00;95173.97;5009414;28;20680;-62
2022/01/03 11:02:00;;;;;;;43.45;34.97;;;;;;;21.86;28.14;95165.56;5009004;28;20131;-64
2022/01/03 11:04:49;;;;;;;41.45;34.65;;;;;;;21.05;29.21;95159.94;5008627;28;20026;-63
2022/01/03 11:13:12;;;;;;;42.45;32.95;;;;;;;18.55;33.32;95164.97;5008814;28;20088;-64
2022/01/03 11:15:41;;;;;;;28.92;24.30;;;;;;;18.02;34.33;95170.69;5008570;28;20128;-63
2022/01/03 11:18:08;;;;;;;37.47;29.30;;;;;;;19.02;33.03;95149.28;5008759;28;20191;-63
2022/01/03 11:20:34;;;;;;;36.70;30.75;;;;;;;20.67;30.20;95138.44;5007361;28;20056;-63
2022/01/03 11:23:00;;;;;;;36.50;27.05;;;;;;;21.74;28.61;95109.13;5008891;28;20489;-63
2022/01/03 11:25:30;;;;;;;31.65;25.27;;;;;;;23.60;26.35;95117.66;5008864;28;20024;-62
2022/01/03 11:27:56;;;;;;;31.13;24.70;;;;;;;25.46;23.63;95105.59;5008659;28;20113;-62
2022/01/03 11:30:22;;;;;;;30.33;25.25;;;;;;;25.06;24.19;95117.50;5008719;28;20828;-65
2022/01/03 11:32:49;;;;;;;29.70;25.52;;;;;;;24.25;24.63;95112.88;5008263;28;20386;-67
2022/01/03 11:35:15;;;;;;;30.17;23.80;;;;;;;22.59;26.55;95111.34;5007854;28;20030;-63
2022/01/03 11:37:44;;;;;;;26.58;21.80;;;;;;;23.03;26.38;95081.13;5008779;28;20034;-64